Time;durP1;ratioP1;P1;durP2;ratioP2;P2;SDS_P1;SDS_P2;PMS_P1;PMS_P2;Temp;Humidity;BMP_temperature;BMP_pressure;BME280_temperature;BME280_humidity;BME280_pressure;Samples;Min_cycle;Max_cycle;Signal;HPM_P1;HPM_P2
2023/07/30 00:01:24;;;;;;;8.18;2.83;;;;;;;16.55;81.46;100849.31;5055307;28;20025;-61
2023/07/30 00:03:49;;;;;;;9.93;3.05;;;;;;;16.46;81.21;100857.44;5055154;28;20033;-62
2023/07/30 00:06:15;;;;;;;13.10;3.25;;;;;;;16.40;81.31;100850.44;5055084;28;20520;-61
2023/07/30 00:08:40;;;;;;;7.90;2.92;;;;;;;16.34;81.53;100858.47;5054987;28;20048;-61
2023/07/30 00:11:06;;;;;;;7.22;3.05;;;;;;;16.30;81.60;100863.88;5037211;28;20386;-61
2023/07/30 00:13:31;;;;;;;9.65;3.03;;;;;;;16.27;82.30;100857.69;5055192;28;20040;-62
2023/07/30 00:15:57;;;;;;;8.43;3.05;;;;;;;16.22;82.28;100854.19;5054925;28;20536;-61
2023/07/30 00:18:22;;;;;;;9.23;3.20;;;;;;;16.25;82.43;100854.16;5055063;28;20069;-61
2023/07/30 00:20:47;;;;;;;10.82;3.17;;;;;;;16.27;82.57;100846.13;5054892;28;20059;-61
2023/07/30 00:23:13;;;;;;;8.52;3.08;;;;;;;16.28;82.71;100853.25;5055126;28;20033;-61
2023/07/30 00:25:38;;;;;;;9.63;3.30;;;;;;;16.32;82.10;100856.75;5054810;28;20029;-62
2023/07/30 00:28:04;;;;;;;10.60;3.50;;;;;;;16.30;82.35;100854.09;5054872;28;20079;-61
2023/07/30 00:30:29;;;;;;;8.80;3.05;;;;;;;16.27;82.41;100856.78;5054745;28;20478;-62
2023/07/30 00:32:54;;;;;;;8.52;3.20;;;;;;;16.29;82.56;100855.00;5054953;28;20037;-62
2023/07/30 00:35:20;;;;;;;7.45;3.38;;;;;;;16.31;82.47;100853.19;5054393;28;20021;-61
2023/07/30 00:37:45;;;;;;;10.20;3.50;;;;;;;16.28;82.94;100854.13;5054488;28;20391;-60
2023/07/30 00:40:11;;;;;;;8.02;3.17;;;;;;;16.24;83.03;100854.19;5054534;28;20381;-61
2023/07/30 00:42:37;;;;;;;8.52;2.95;;;;;;;16.19;83.03;100858.69;5054641;28;20375;-61
2023/07/30 00:45:03;;;;;;;10.02;3.65;;;;;;;16.18;83.14;100856.91;5054306;28;20027;-60
2023/07/30 00:47:28;;;;;;;8.68;3.33;;;;;;;16.23;82.72;100863.06;5054462;28;20025;-60
2023/07/30 00:49:54;;;;;;;10.75;3.42;;;;;;;16.13;83.50;100856.97;5054388;28;20068;-60
2023/07/30 00:52:21;;;;;;;9.95;3.40;;;;;;;16.11;83.56;100860.56;5054296;28;20032;-60
2023/07/30 00:54:48;;;;;;;10.30;3.28;;;;;;;16.00;84.00;100861.56;5054217;28;20029;-60
2023/07/30 00:57:15;;;;;;;8.55;3.40;;;;;;;15.98;84.11;100862.50;5054077;28;20036;-60
2023/07/30 00:59:40;;;;;;;8.50;3.17;;;;;;;15.93;84.57;100865.22;5054088;28;20049;-60
2023/07/30 01:02:06;;;;;;;7.88;3.25;;;;;;;15.91;85.02;100868.78;5054152;28;20063;-60
2023/07/30 01:04:32;;;;;;;9.40;3.35;;;;;;;15.89;85.06;100862.59;5054059;28;20029;-60
2023/07/30 01:06:58;;;;;;;9.48;3.40;;;;;;;15.89;85.28;100870.59;5053978;28;20029;-60
2023/07/30 01:09:23;;;;;;;11.02;3.30;;;;;;;15.92;85.39;100875.88;5054443;28;20053;-60
2023/07/30 01:11:49;;;;;;;11.00;3.65;;;;;;;15.87;84.79;100880.38;5054015;28;20107;-60
2023/07/30 01:14:16;;;;;;;9.10;3.60;;;;;;;15.78;85.27;100882.22;5053687;28;20112;-60
2023/07/30 01:16:41;;;;;;;11.40;3.60;;;;;;;15.74;85.86;100882.28;5054153;28;20029;-60
2023/07/30 01:19:07;;;;;;;9.30;3.72;;;;;;;15.70;86.31;100889.41;5053809;28;20178;-60
2023/07/30 01:21:36;;;;;;;6.90;3.28;;;;;;;15.72;86.44;100890.28;5053699;28;20025;-60
2023/07/30 01:24:02;;;;;;;12.02;3.72;;;;;;;15.69;86.19;100892.97;5053757;28;20029;-60
2023/07/30 01:26:34;;;;;;;11.73;3.53;;;;;;;15.69;86.48;100894.75;5053748;28;20036;-60
2023/07/30 01:29:03;;;;;;;8.77;3.40;;;;;;;15.69;86.52;100894.75;5053618;28;20390;-60
2023/07/30 01:31:31;;;;;;;11.15;3.60;;;;;;;15.66;86.90;100886.78;5053644;28;20382;-60
2023/07/30 01:33:57;;;;;;;9.20;3.60;;;;;;;15.67;86.95;100888.53;5053229;28;20117;-60
2023/07/30 01:36:23;;;;;;;10.07;3.33;;;;;;;15.70;87.30;100894.72;5053317;28;20029;-61
2023/07/30 01:38:50;;;;;;;12.38;3.90;;;;;;;15.64;87.78;100900.13;5053422;28;20025;-61
2023/07/30 01:41:15;;;;;;;13.85;3.53;;;;;;;15.66;87.76;100903.66;5053323;28;20029;-60
2023/07/30 01:43:41;;;;;;;9.13;3.30;;;;;;;15.69;88.49;100910.75;5053321;28;20052;-61
2023/07/30 01:46:06;;;;;;;9.70;3.63;;;;;;;15.71;87.90;100914.25;5053350;28;20036;-61
2023/07/30 01:48:31;;;;;;;10.77;3.47;;;;;;;15.74;87.93;100899.13;5053191;28;20079;-61
2023/07/30 01:50:57;;;;;;;10.75;3.47;;;;;;;15.76;87.61;100904.47;5052379;28;20053;-60
2023/07/30 01:53:22;;;;;;;13.07;3.65;;;;;;;15.74;87.82;100906.25;5035410;28;20033;-60
2023/07/30 01:55:48;;;;;;;10.70;3.50;;;;;;;15.74;88.02;100909.78;5053358;28;20095;-60
2023/07/30 01:58:13;;;;;;;14.85;3.47;;;;;;;15.72;88.20;100910.72;5052977;28;20394;-61
2023/07/30 02:00:39;;;;;;;10.27;3.40;;;;;;;15.71;88.13;100911.59;5053342;28;20036;-60
2023/07/30 02:03:05;;;;;;;10.45;3.70;;;;;;;15.68;88.45;100912.53;5035096;28;20383;-61
2023/07/30 02:05:30;;;;;;;14.35;3.65;;;;;;;15.67;88.54;100917.84;5052778;28;20028;-61
2023/07/30 02:07:55;;;;;;;12.90;3.50;;;;;;;15.65;88.61;100915.22;5052722;28;20445;-61
2023/07/30 02:10:21;;;;;;;9.50;3.65;;;;;;;15.63;89.07;100910.75;5052865;28;20060;-61
2023/07/30 02:12:46;;;;;;;9.43;3.63;;;;;;;15.56;89.29;100917.94;5052725;28;20390;-60
2023/07/30 02:15:12;;;;;;;11.50;4.13;;;;;;;15.49;89.52;100911.75;5052930;28;20033;-60
2023/07/30 02:17:37;;;;;;;9.18;3.70;;;;;;;15.46;90.01;100918.88;5052881;28;20058;-61
2023/07/30 02:20:03;;;;;;;10.60;3.55;;;;;;;15.47;90.52;100908.22;5052976;28;20029;-61
2023/07/30 02:22:28;;;;;;;11.68;3.80;;;;;;;15.47;90.41;100902.91;5052553;28;20497;-61
2023/07/30 02:24:53;;;;;;;12.35;3.83;;;;;;;15.53;90.24;100912.63;5052804;28;20054;-60
2023/07/30 02:27:19;;;;;;;11.40;3.45;;;;;;;15.54;90.13;100898.38;5053249;28;20029;-60
2023/07/30 02:29:44;;;;;;;10.32;3.72;;;;;;;15.60;90.54;100892.16;5053206;28;20047;-60
2023/07/30 02:32:09;;;;;;;10.75;3.78;;;;;;;15.63;90.16;100898.34;5052928;28;20060;-60
2023/07/30 02:34:35;;;;;;;14.77;4.00;;;;;;;15.61;90.75;100894.78;5052433;28;20025;-61
2023/07/30 02:37:00;;;;;;;14.15;3.92;;;;;;;15.59;90.80;100893.94;5052802;28;20025;-61
2023/07/30 02:39:26;;;;;;;13.05;4.10;;;;;;;15.53;91.34;100897.50;5052500;28;20079;-61
2023/07/30 02:41:51;;;;;;;11.82;4.10;;;;;;;15.53;91.18;100899.28;5052352;28;20036;-61
2023/07/30 02:44:16;;;;;;;12.18;3.88;;;;;;;15.57;91.54;100897.50;5052575;28;20025;-61
2023/07/30 02:46:42;;;;;;;16.70;4.40;;;;;;;15.57;91.99;100893.03;5052463;28;20116;-61
2023/07/30 02:49:08;;;;;;;10.70;4.05;;;;;;;15.59;92.33;100890.34;5052570;28;20433;-60
2023/07/30 02:51:33;;;;;;;14.85;4.20;;;;;;;15.62;92.12;100893.88;5052359;28;20091;-60
2023/07/30 02:54:04;;;;;;;15.50;4.82;;;;;;;15.63;92.39;100895.69;5052472;28;20029;-61
2023/07/30 02:56:29;;;;;;;16.27;5.03;;;;;;;15.63;92.35;100900.09;5052395;28;20033;-61
2023/07/30 02:58:55;;;;;;;13.77;4.40;;;;;;;15.66;92.59;100893.00;5052366;28;20075;-61
2023/07/30 03:01:20;;;;;;;12.02;4.30;;;;;;;15.71;92.78;100895.59;5052947;28;20171;-61
2023/07/30 03:03:45;;;;;;;16.90;4.85;;;;;;;15.71;92.42;100899.16;5056646;28;20029;-61
2023/07/30 03:06:11;;;;;;;15.32;4.97;;;;;;;15.71;92.66;100893.81;5056091;28;20406;-61
2023/07/30 03:08:37;;;;;;;14.45;4.80;;;;;;;15.74;92.66;100896.47;5056337;28;20398;-61
2023/07/30 03:11:02;;;;;;;15.05;4.43;;;;;;;15.73;92.55;100901.81;5056387;28;20539;-61
2023/07/30 03:13:27;;;;;;;16.25;4.90;;;;;;;15.73;92.69;100894.72;5056388;28;20470;-61
2023/07/30 03:15:53;;;;;;;11.32;4.65;;;;;;;15.70;93.00;100897.41;5056151;28;20435;-61
2023/07/30 03:18:18;;;;;;;12.80;4.35;;;;;;;15.68;93.11;100901.88;5056421;28;20067;-61
2023/07/30 03:20:44;;;;;;;15.25;4.78;;;;;;;15.67;93.47;100905.44;5055978;28;20534;-60
2023/07/30 03:23:09;;;;;;;17.10;4.55;;;;;;;15.66;93.58;100902.78;5056158;28;20032;-61
2023/07/30 03:25:34;;;;;;;21.75;5.35;;;;;;;15.66;93.80;100908.97;5056114;28;20033;-60
2023/07/30 03:28:00;;;;;;;13.65;4.50;;;;;;;15.64;94.19;100902.78;5055941;28;20398;-61
2023/07/30 03:30:25;;;;;;;14.43;4.45;;;;;;;15.65;94.45;100898.34;5055853;28;20104;-61
2023/07/30 03:32:51;;;;;;;16.88;4.90;;;;;;;15.64;94.65;100902.78;5055799;28;20025;-60
2023/07/30 03:35:16;;;;;;;11.88;4.30;;;;;;;15.68;94.49;100896.53;5055612;28;20036;-61
2023/07/30 03:37:41;;;;;;;12.57;4.63;;;;;;;15.71;94.53;100909.81;5056293;28;20032;-60
2023/07/30 03:40:07;;;;;;;20.23;5.10;;;;;;;15.73;94.39;100907.16;5055653;28;20024;-61
2023/07/30 03:42:33;;;;;;;16.23;4.57;;;;;;;15.72;94.60;100914.25;5055530;28;20037;-60
2023/07/30 03:44:58;;;;;;;14.70;4.57;;;;;;;15.72;94.99;100913.38;5055778;28;20029;-61
2023/07/30 03:47:23;;;;;;;16.35;4.80;;;;;;;15.70;94.76;100912.50;5037706;28;20061;-61
2023/07/30 03:49:49;;;;;;;20.58;5.03;;;;;;;15.68;95.62;100916.97;5055422;28;20024;-60
2023/07/30 03:52:14;;;;;;;17.33;4.88;;;;;;;15.66;95.66;100914.31;5055341;28;20052;-61
2023/07/30 03:54:39;;;;;;;15.57;4.15;;;;;;;15.69;95.05;100927.59;5055266;28;20087;-60
2023/07/30 03:57:05;;;;;;;12.48;4.40;;;;;;;15.68;95.36;100919.63;5055418;28;20056;-60
2023/07/30 03:59:30;;;;;;;15.38;5.22;;;;;;;15.72;95.55;100924.91;5055347;28;20033;-61
2023/07/30 04:01:56;;;;;;;14.68;4.43;;;;;;;15.75;95.36;100924.88;5037447;28;20043;-60
2023/07/30 04:04:22;;;;;;;13.75;4.53;;;;;;;15.78;95.14;100927.50;5055140;28;20112;-61
2023/07/30 04:06:47;;;;;;;17.50;4.40;;;;;;;15.74;94.99;100927.56;5055183;28;20063;-61
2023/07/30 04:09:12;;;;;;;15.10;4.70;;;;;;;15.74;95.32;100923.13;5055255;28;20028;-60
2023/07/30 04:11:38;;;;;;;15.77;4.60;;;;;;;15.74;95.46;100931.09;5054976;28;20029;-60
2023/07/30 04:14:04;;;;;;;14.48;4.80;;;;;;;15.76;95.84;100931.13;5054041;28;20041;-61
2023/07/30 04:16:30;;;;;;;17.15;5.15;;;;;;;15.76;95.73;100928.44;5055073;28;20044;-60
2023/07/30 04:18:55;;;;;;;17.35;5.57;;;;;;;15.73;95.45;100926.69;5054992;28;20033;-60
2023/07/30 04:21:21;;;;;;;17.23;4.95;;;;;;;15.72;95.68;100929.38;5054904;28;20074;-61
2023/07/30 04:23:46;;;;;;;14.43;5.03;;;;;;;15.73;96.28;100926.69;5055048;28;20037;-60
2023/07/30 04:26:12;;;;;;;16.98;4.95;;;;;;;15.76;96.28;100936.44;5054957;28;20488;-61
2023/07/30 04:28:37;;;;;;;17.70;4.90;;;;;;;15.74;96.60;100932.88;5054829;28;20051;-61
2023/07/30 04:31:03;;;;;;;16.73;5.20;;;;;;;15.73;96.41;100934.69;5055028;28;20033;-60
2023/07/30 04:33:28;;;;;;;16.85;5.25;;;;;;;15.75;96.22;100934.66;5054703;28;20057;-60
2023/07/30 04:35:54;;;;;;;18.40;5.30;;;;;;;15.73;96.65;100936.47;5054389;28;20026;-60
2023/07/30 04:38:19;;;;;;;16.08;5.07;;;;;;;15.73;96.82;100931.13;5054659;28;20429;-61
2023/07/30 04:40:45;;;;;;;22.77;5.88;;;;;;;15.72;96.82;100932.03;5054496;28;20025;-61
2023/07/30 04:43:10;;;;;;;20.52;5.60;;;;;;;15.72;97.17;100930.25;5054329;28;20426;-60
2023/07/30 04:45:35;;;;;;;23.23;5.78;;;;;;;15.74;97.14;100930.22;5054469;28;20053;-60
2023/07/30 04:48:01;;;;;;;21.30;5.80;;;;;;;15.79;97.15;100925.72;5054204;28;20029;-60
2023/07/30 04:50:26;;;;;;;17.30;6.00;;;;;;;15.86;96.92;100935.44;5036472;28;20061;-60
2023/07/30 04:52:52;;;;;;;15.73;6.05;;;;;;;15.89;96.87;100929.22;5054163;28;20493;-60
2023/07/30 04:55:17;;;;;;;19.88;5.72;;;;;;;15.90;96.76;100923.84;5054232;28;20078;-60
2023/07/30 04:57:43;;;;;;;20.90;5.22;;;;;;;15.95;96.91;100930.03;5036732;28;20075;-60
2023/07/30 05:00:08;;;;;;;21.25;5.47;;;;;;;15.97;96.71;100935.31;5054839;28;20029;-60
2023/07/30 05:02:34;;;;;;;23.08;5.72;;;;;;;15.97;96.99;100936.22;5054644;28;20037;-60
2023/07/30 05:04:59;;;;;;;21.20;6.20;;;;;;;15.94;97.15;100933.59;5053827;28;20413;-60
2023/07/30 05:07:25;;;;;;;16.10;5.30;;;;;;;15.99;97.16;100946.88;5053930;28;20091;-60
2023/07/30 05:09:50;;;;;;;21.92;6.05;;;;;;;15.96;97.39;100938.91;5053956;28;20474;-60
2023/07/30 05:12:15;;;;;;;22.90;6.03;;;;;;;16.01;97.04;100945.94;5054252;28;20048;-60
2023/07/30 05:14:41;;;;;;;18.02;6.30;;;;;;;16.03;96.83;100949.50;5053662;28;20433;-60
2023/07/30 05:17:06;;;;;;;20.60;6.15;;;;;;;16.01;97.21;100959.25;5053991;28;20040;-60
2023/07/30 05:19:32;;;;;;;20.52;5.85;;;;;;;16.04;97.10;100958.38;5035658;28;20053;-60
2023/07/30 05:21:59;;;;;;;18.33;6.22;;;;;;;16.02;97.02;100965.50;5053537;28;20090;-60
2023/07/30 05:24:24;;;;;;;23.63;5.97;;;;;;;16.05;97.24;100960.13;5053737;28;20037;-60
2023/07/30 05:26:50;;;;;;;19.05;6.45;;;;;;;16.10;97.14;100958.31;5053715;28;20036;-61
2023/07/30 05:29:15;;;;;;;22.65;6.15;;;;;;;16.12;96.99;100961.84;5053769;28;20029;-60
2023/07/30 05:31:41;;;;;;;21.27;5.88;;;;;;;16.13;96.80;100966.25;5053386;28;20104;-60
2023/07/30 05:34:06;;;;;;;21.65;5.82;;;;;;;16.15;96.58;100967.16;5053277;28;20033;-60
2023/07/30 05:36:31;;;;;;;20.45;6.00;;;;;;;16.15;96.91;100964.47;5053304;28;20107;-60
2023/07/30 05:38:57;;;;;;;18.00;5.57;;;;;;;16.16;96.83;100955.56;5053429;28;20531;-60
2023/07/30 05:41:22;;;;;;;19.05;5.75;;;;;;;16.16;97.04;100957.38;5053369;28;20057;-60
2023/07/30 05:43:48;;;;;;;22.08;6.03;;;;;;;16.18;96.90;100948.44;5053291;28;20108;-60
2023/07/30 05:46:14;;;;;;;18.92;5.63;;;;;;;16.22;97.05;100954.63;5053492;28;20381;-61
2023/07/30 05:48:39;;;;;;;22.73;5.90;;;;;;;16.23;96.91;100954.63;5053113;28;20031;-61
2023/07/30 05:51:05;;;;;;;23.58;6.18;;;;;;;16.24;96.80;100952.84;5053200;28;20509;-60
2023/07/30 05:53:31;;;;;;;23.55;6.30;;;;;;;16.22;96.86;100952.84;5053214;28;20087;-61
2023/07/30 05:55:56;;;;;;;21.95;6.30;;;;;;;16.22;97.30;100952.84;5053315;28;20037;-61
2023/07/30 05:58:21;;;;;;;19.90;5.72;;;;;;;16.24;97.49;100948.38;5052967;28;20032;-60
2023/07/30 06:00:47;;;;;;;19.20;6.10;;;;;;;16.26;97.52;100959.03;5053379;28;20021;-60
2023/07/30 06:03:12;;;;;;;19.40;6.15;;;;;;;16.31;97.51;100964.31;5052904;28;20037;-60
2023/07/30 06:05:41;;;;;;;22.95;6.00;;;;;;;16.35;97.61;100958.03;5052814;28;20531;-60
2023/07/30 06:08:07;;;;;;;22.55;6.05;;;;;;;16.37;97.41;100959.78;5052444;28;20179;-60
2023/07/30 06:10:40;;;;;;;26.70;6.53;;;;;;;16.41;97.49;100958.88;5052677;28;20500;-60
2023/07/30 06:13:05;;;;;;;21.70;6.18;;;;;;;16.46;96.57;100957.03;5053104;28;20124;-60
2023/07/30 06:15:32;;;;;;;22.90;6.10;;;;;;;16.46;96.93;100962.34;5052614;28;20067;-60
2023/07/30 06:17:57;;;;;;;19.95;6.15;;;;;;;16.49;96.83;100967.66;5052835;28;20075;-61
2023/07/30 06:20:22;;;;;;;27.25;6.30;;;;;;;16.47;96.63;100968.56;5052862;28;20040;-60
2023/07/30 06:22:48;;;;;;;23.08;5.90;;;;;;;16.52;96.67;100962.25;5052746;28;20473;-60
2023/07/30 06:25:13;;;;;;;22.05;6.22;;;;;;;16.53;97.06;100963.19;5052679;28;20071;-60
2023/07/30 06:27:39;;;;;;;23.20;6.00;;;;;;;16.55;96.99;100958.69;5052757;28;20039;-60
2023/07/30 06:30:05;;;;;;;20.67;5.78;;;;;;;16.60;96.80;100963.97;5034801;28;20025;-60
2023/07/30 06:32:30;;;;;;;24.10;5.88;;;;;;;16.65;96.93;100956.78;5052590;28;20025;-60
2023/07/30 06:34:56;;;;;;;23.95;6.10;;;;;;;16.71;96.54;100964.72;5053408;28;20586;-60
2023/07/30 06:37:21;;;;;;;22.85;6.30;;;;;;;16.73;96.74;100968.28;5053162;28;20425;-60
2023/07/30 06:39:46;;;;;;;19.50;5.78;;;;;;;16.75;96.46;100966.50;5053342;28;20025;-60
2023/07/30 06:42:12;;;;;;;24.42;6.30;;;;;;;16.78;96.04;100972.66;5052435;28;20433;-60
2023/07/30 06:44:37;;;;;;;21.88;5.85;;;;;;;16.82;95.53;100975.28;5052729;28;20025;-60
2023/07/30 06:47:03;;;;;;;23.02;5.65;;;;;;;16.80;95.63;100974.44;5052442;28;20536;-60
2023/07/30 06:49:28;;;;;;;24.17;5.72;;;;;;;16.84;95.71;100963.72;5052502;28;20116;-61
2023/07/30 06:51:54;;;;;;;22.92;5.72;;;;;;;16.96;95.97;100968.00;5052175;28;20029;-60
2023/07/30 06:54:20;;;;;;;20.55;5.40;;;;;;;17.09;94.89;100972.28;5052236;28;20063;-60
2023/07/30 06:56:45;;;;;;;18.00;5.30;;;;;;;17.23;94.25;100972.06;5034483;28;20577;-60
2023/07/30 06:59:11;;;;;;;20.23;5.55;;;;;;;17.33;93.86;100970.13;5052579;28;20108;-60
2023/07/30 07:01:36;;;;;;;22.48;5.38;;;;;;;17.36;92.72;100978.09;5052212;28;20083;-60
2023/07/30 07:04:02;;;;;;;24.77;5.90;;;;;;;17.42;92.99;100976.22;5052578;28;20128;-60
2023/07/30 07:06:27;;;;;;;19.98;5.18;;;;;;;17.47;92.46;100973.47;5051820;28;20108;-60
2023/07/30 07:08:52;;;;;;;24.02;5.22;;;;;;;17.51;91.86;100983.19;5052053;28;20052;-60
2023/07/30 07:11:18;;;;;;;26.63;5.45;;;;;;;17.49;91.85;100977.88;5052240;28;20025;-60
2023/07/30 07:13:44;;;;;;;20.85;5.03;;;;;;;17.49;91.11;100985.03;5052335;28;20396;-60
2023/07/30 07:16:09;;;;;;;21.98;4.47;;;;;;;17.51;91.07;100984.09;5052326;28;20057;-60
2023/07/30 07:18:35;;;;;;;21.27;4.90;;;;;;;17.53;90.71;100984.06;5052086;28;20492;-60
2023/07/30 07:21:00;;;;;;;16.17;4.50;;;;;;;17.64;90.95;100981.22;5052206;28;20449;-60
2023/07/30 07:23:26;;;;;;;15.98;4.35;;;;;;;17.77;90.92;100991.75;5051928;28;20120;-60
2023/07/30 07:25:52;;;;;;;23.55;4.57;;;;;;;17.95;90.21;100987.00;5052264;28;20067;-60
2023/07/30 07:28:18;;;;;;;21.27;5.05;;;;;;;18.10;89.38;100973.31;5052213;28;20028;-60
2023/07/30 07:30:44;;;;;;;19.77;4.55;;;;;;;18.24;88.71;100987.34;5052132;28;20103;-60
2023/07/30 07:33:12;;;;;;;17.40;4.45;;;;;;;18.40;86.45;100995.94;5051763;28;20132;-60
2023/07/30 07:35:39;;;;;;;16.67;4.30;;;;;;;18.49;85.73;100981.50;5051802;28;20536;-60
2023/07/30 07:38:04;;;;;;;17.00;4.47;;;;;;;18.61;85.70;100986.63;5051563;28;20029;-60
2023/07/30 07:40:29;;;;;;;18.50;4.25;;;;;;;18.67;84.95;100993.63;5051870;28;20033;-60
2023/07/30 07:42:55;;;;;;;27.40;5.05;;;;;;;18.74;85.83;100979.25;5052141;28;20041;-60
2023/07/30 07:45:20;;;;;;;21.88;4.05;;;;;;;18.77;84.70;100988.09;5052136;28;20108;-60
2023/07/30 07:47:46;;;;;;;20.17;4.05;;;;;;;18.74;83.73;100996.19;5052078;28;20160;-60
2023/07/30 07:50:11;;;;;;;19.77;4.07;;;;;;;18.62;84.06;100984.81;5055031;28;20033;-60
2023/07/30 07:52:37;;;;;;;19.50;4.03;;;;;;;18.57;84.12;100995.63;5055328;28;20167;-60
2023/07/30 07:55:04;;;;;;;23.33;4.65;;;;;;;18.49;83.36;101000.22;5055623;28;20029;-60
2023/07/30 07:57:29;;;;;;;17.65;4.43;;;;;;;18.43;85.18;100995.91;5055631;28;20021;-60
2023/07/30 07:59:56;;;;;;;22.77;4.57;;;;;;;18.44;84.85;100988.75;5037540;28;20478;-59
2023/07/30 08:02:21;;;;;;;17.20;4.22;;;;;;;18.52;85.02;101002.88;5055362;28;20473;-61
2023/07/30 08:04:46;;;;;;;20.98;4.38;;;;;;;18.53;83.73;101000.16;5055394;28;20037;-61
2023/07/30 08:07:12;;;;;;;21.65;4.15;;;;;;;18.59;84.37;100999.16;5054859;28;20057;-61
2023/07/30 08:09:37;;;;;;;18.13;3.85;;;;;;;18.71;84.03;101006.06;5055150;28;20033;-61
2023/07/30 08:12:03;;;;;;;15.80;3.85;;;;;;;18.77;82.02;101003.28;5055221;28;20032;-61
2023/07/30 08:14:29;;;;;;;16.00;3.83;;;;;;;18.84;82.94;101012.94;5055213;28;20478;-61
2023/07/30 08:16:55;;;;;;;18.48;3.80;;;;;;;18.91;82.01;101009.22;5055108;28;20105;-61
2023/07/30 08:19:20;;;;;;;21.08;4.05;;;;;;;18.90;81.74;101007.47;5055237;28;20113;-61
2023/07/30 08:21:45;;;;;;;17.20;4.13;;;;;;;18.93;81.42;101003.88;5054694;28;20029;-61
2023/07/30 08:24:11;;;;;;;20.80;4.40;;;;;;;18.91;81.45;101009.22;5054919;28;20056;-61
2023/07/30 08:26:36;;;;;;;22.92;4.20;;;;;;;19.00;81.22;101010.84;5055135;28;20032;-61
2023/07/30 08:29:02;;;;;;;22.10;4.65;;;;;;;18.92;80.96;101005.63;5055171;28;20473;-61
2023/07/30 08:31:27;;;;;;;17.27;4.32;;;;;;;18.84;80.52;101010.25;5054979;28;20107;-61
2023/07/30 08:33:52;;;;;;;17.98;4.03;;;;;;;18.76;80.18;101018.47;5054800;28;20482;-61
2023/07/30 08:36:18;;;;;;;16.42;4.35;;;;;;;18.82;81.11;101005.88;5054351;28;20032;-61
2023/07/30 08:38:43;;;;;;;17.02;4.15;;;;;;;18.85;81.10;101004.03;5054726;28;20470;-61
2023/07/30 08:41:09;;;;;;;18.02;4.07;;;;;;;18.86;80.75;100999.53;5054655;28;20489;-61
2023/07/30 08:43:35;;;;;;;15.20;3.80;;;;;;;18.87;80.56;101006.66;5054816;28;20025;-61
2023/07/30 08:46:01;;;;;;;18.08;4.25;;;;;;;18.88;80.04;101013.75;5054656;28;20467;-61
2023/07/30 08:48:26;;;;;;;17.67;3.92;;;;;;;18.90;79.88;101009.28;5037050;28;20071;-61
2023/07/30 08:50:52;;;;;;;14.88;4.00;;;;;;;18.91;79.68;101017.25;5054303;28;20037;-61
2023/07/30 08:53:18;;;;;;;15.77;3.85;;;;;;;18.89;79.55;101018.22;5054303;28;20035;-61
2023/07/30 08:55:44;;;;;;;26.23;4.07;;;;;;;18.86;79.34;101012.94;5054445;28;20382;-61
2023/07/30 08:58:11;;;;;;;16.60;4.38;;;;;;;18.86;80.40;101020.97;5054393;28;20025;-61
2023/07/30 09:00:38;;;;;;;16.20;3.95;;;;;;;18.77;80.80;101025.59;5054096;28;20418;-61
2023/07/30 09:03:04;;;;;;;16.17;4.22;;;;;;;18.61;82.33;101017.84;5036257;28;20358;-61
2023/07/30 09:05:30;;;;;;;14.57;3.75;;;;;;;18.43;85.08;101025.31;5053937;28;20025;-61
2023/07/30 09:07:57;;;;;;;18.33;4.53;;;;;;;18.30;86.88;101020.25;5054089;28;20110;-61
2023/07/30 09:10:23;;;;;;;15.90;3.83;;;;;;;18.20;88.53;101019.50;5054230;28;20033;-62
2023/07/30 09:12:56;;;;;;;14.32;4.18;;;;;;;18.11;89.54;101014.31;5054111;28;20518;-61
2023/07/30 09:15:48;;;;;;;17.38;4.00;;;;;;;18.15;89.78;101013.34;5054207;28;20075;-61
2023/07/30 09:18:17;;;;;;;14.82;3.92;;;;;;;18.29;91.16;101021.16;5050261;28;20203;-61
2023/07/30 09:20:42;;;;;;;17.88;4.75;;;;;;;18.72;91.32;101011.41;5053667;28;20036;-61
2023/07/30 09:23:09;;;;;;;18.45;4.82;;;;;;;19.17;91.61;101005.09;5053949;28;20043;-61
2023/07/30 09:25:35;;;;;;;21.55;4.20;;;;;;;19.49;85.97;101009.75;5054108;28;20021;-61
2023/07/30 09:28:02;;;;;;;17.48;4.40;;;;;;;19.68;84.72;101007.53;5053901;28;20021;-61
2023/07/30 09:30:27;;;;;;;17.17;4.20;;;;;;;19.86;83.05;101004.38;5053961;28;20105;-60
2023/07/30 09:32:55;;;;;;;16.08;4.00;;;;;;;20.28;82.83;101001.53;5053807;28;20037;-61
2023/07/30 09:35:24;;;;;;;16.23;3.92;;;;;;;20.71;83.46;101001.25;5053360;28;20486;-60
2023/07/30 09:37:50;;;;;;;17.48;3.95;;;;;;;20.86;78.84;101001.75;5053776;28;20044;-60
2023/07/30 09:40:18;;;;;;;15.52;3.88;;;;;;;20.87;76.46;100999.00;5053576;28;20036;-61
2023/07/30 09:42:46;;;;;;;14.80;3.60;;;;;;;20.80;72.48;101008.16;5053557;28;20501;-60
2023/07/30 09:45:20;;;;;;;16.33;3.53;;;;;;;20.91;72.94;100999.78;5053779;28;20037;-61
2023/07/30 09:47:49;;;;;;;10.07;3.10;;;;;;;20.92;71.55;101001.56;5053432;28;20024;-61
2023/07/30 09:50:15;;;;;;;13.30;3.25;;;;;;;21.09;69.31;101014.47;5053595;28;20028;-61
2023/07/30 09:52:42;;;;;;;12.75;3.10;;;;;;;21.02;67.56;101014.66;5053382;28;20052;-61
2023/07/30 09:55:08;;;;;;;11.43;2.90;;;;;;;20.85;69.21;101021.44;5053241;28;20032;-61
2023/07/30 09:57:34;;;;;;;13.00;3.00;;;;;;;20.85;70.94;101011.56;5053473;28;20026;-61
2023/07/30 09:59:59;;;;;;;13.48;3.20;;;;;;;20.88;70.48;101014.19;5035743;28;20028;-61
2023/07/30 10:02:31;;;;;;;13.05;3.33;;;;;;;20.83;71.03;101021.50;5046359;28;20026;-60
2023/07/30 10:04:57;;;;;;;10.50;2.88;;;;;;;20.76;68.19;101022.59;5015344;28;20029;-59
2023/07/30 10:07:25;;;;;;;12.20;3.20;;;;;;;20.62;69.47;101024.78;5036035;28;20123;-59
2023/07/30 10:09:54;;;;;;;13.43;3.10;;;;;;;20.53;68.20;101020.56;5053006;28;20025;-60
2023/07/30 10:12:28;;;;;;;11.90;2.95;;;;;;;20.56;68.07;101014.25;5052032;28;20029;-59
2023/07/30 10:14:54;;;;;;;16.00;3.20;;;;;;;20.51;68.59;101022.41;5045500;28;20534;-59
2023/07/30 10:17:19;;;;;;;11.43;3.30;;;;;;;20.53;70.56;101027.75;5032188;28;20109;-60
2023/07/30 10:19:49;;;;;;;11.10;2.90;;;;;;;20.49;70.85;101027.81;5032453;28;20041;-61
2023/07/30 10:22:17;;;;;;;13.25;3.40;;;;;;;20.46;71.71;101029.66;5029847;28;20117;-60
2023/07/30 10:24:56;;;;;;;11.27;2.97;;;;;;;20.38;70.99;101031.66;5032179;28;20108;-60
2023/07/30 10:27:26;;;;;;;11.85;3.13;;;;;;;20.42;70.53;101047.66;5013433;28;20022;-60
2023/07/30 10:30:10;;;;;;;11.45;3.30;;;;;;;20.60;70.42;101049.00;5013057;28;20097;-60
2023/07/30 10:32:57;;;;;;;18.23;3.47;;;;;;;20.70;68.96;101052.31;5013170;28;20054;-60
2023/07/30 10:35:44;;;;;;;11.48;3.05;;;;;;;20.85;68.51;101064.41;5012850;28;20065;-62
2023/07/30 10:38:28;;;;;;;8.40;3.05;;;;;;;20.84;68.76;101055.50;5012961;28;20029;-61
2023/07/30 10:41:08;;;;;;;11.57;2.95;;;;;;;20.85;70.06;101067.97;5013038;28;20026;-61
2023/07/30 10:43:39;;;;;;;9.05;2.60;;;;;;;20.67;69.98;101079.25;5013320;28;20026;-61
2023/07/30 10:46:05;;;;;;;10.02;2.78;;;;;;;20.47;69.96;101075.28;5012988;28;20021;-62
2023/07/30 10:48:36;;;;;;;6.15;2.97;;;;;;;20.36;71.18;101073.78;5013143;28;20021;-61
2023/07/30 10:51:12;;;;;;;10.07;2.92;;;;;;;20.37;71.75;101073.75;5016061;28;20064;-61
2023/07/30 10:53:46;;;;;;;9.05;3.00;;;;;;;20.33;71.80;101071.19;5026906;28;20029;-61
2023/07/30 10:56:13;;;;;;;9.68;2.78;;;;;;;20.30;73.41;101069.47;5011648;28;20092;-62
2023/07/30 10:58:38;;;;;;;12.77;3.10;;;;;;;20.41;73.11;101070.06;5031077;28;20175;-62
2023/07/30 11:01:06;;;;;;;12.13;3.28;;;;;;;20.64;72.06;101069.50;5031433;28;20535;-60
2023/07/30 11:03:32;;;;;;;8.27;2.78;;;;;;;20.81;69.98;101060.06;5031915;28;20368;-62
2023/07/30 11:05:58;;;;;;;11.52;2.90;;;;;;;20.87;71.07;101060.78;5031802;28;20022;-62
2023/07/30 11:08:37;;;;;;;13.27;3.50;;;;;;;20.88;69.90;101067.03;5042936;28;20052;-61
2023/07/30 11:11:04;;;;;;;9.57;2.90;;;;;;;20.76;70.33;101069.13;5051825;28;20103;-61
2023/07/30 11:13:35;;;;;;;13.35;3.10;;;;;;;20.71;73.63;101073.75;5051550;28;20083;-61
2023/07/30 11:16:01;;;;;;;10.85;3.20;;;;;;;20.54;73.88;101067.09;5052200;28;20028;-60